sensor_id;sensor_type;location;lat;lon;timestamp;pressure;altitude;pressure_sealevel;temperature;humidity
32456;BME280;18912;43.270;27.942;2023-03-31T00:00:32;98194.03;;;10.06;36.11
32456;BME280;18912;43.270;27.942;2023-03-31T00:02:57;98191.56;;;10.11;35.95
32456;BME280;18912;43.270;27.942;2023-03-31T00:05:24;98200.59;;;10.31;35.94
32456;BME280;18912;43.270;27.942;2023-03-31T00:07:56;98196.28;;;10.02;36.07
32456;BME280;18912;43.270;27.942;2023-03-31T00:10:34;98189.53;;;10.26;35.85
32456;BME280;18912;43.270;27.942;2023-03-31T00:13:00;98186.91;;;10.59;35.36
32456;BME280;18912;43.270;27.942;2023-03-31T00:15:27;98198.75;;;10.45;35.55
32456;BME280;18912;43.270;27.942;2023-03-31T00:17:53;98164.69;;;10.50;35.50
32456;BME280;18912;43.270;27.942;2023-03-31T00:20:18;98170.50;;;10.80;35.11
32456;BME280;18912;43.270;27.942;2023-03-31T00:22:44;98165.84;;;10.28;35.34
32456;BME280;18912;43.270;27.942;2023-03-31T00:25:14;98164.59;;;10.24;35.58
32456;BME280;18912;43.270;27.942;2023-03-31T00:27:44;98163.00;;;10.49;35.54
32456;BME280;18912;43.270;27.942;2023-03-31T00:30:11;98167.13;;;10.32;35.56
32456;BME280;18912;43.270;27.942;2023-03-31T00:32:37;98156.94;;;10.27;35.84
32456;BME280;18912;43.270;27.942;2023-03-31T00:35:03;98157.56;;;10.36;35.66
32456;BME280;18912;43.270;27.942;2023-03-31T00:37:29;98151.22;;;10.03;35.98
32456;BME280;18912;43.270;27.942;2023-03-31T00:39:55;98153.59;;;10.25;35.75
32456;BME280;18912;43.270;27.942;2023-03-31T00:42:21;98147.34;;;10.12;35.65
32456;BME280;18912;43.270;27.942;2023-03-31T00:47:47;98142.97;;;10.17;35.89
32456;BME280;18912;43.270;27.942;2023-03-31T00:50:34;98135.28;;;10.21;35.84
32456;BME280;18912;43.270;27.942;2023-03-31T00:53:09;98125.53;;;10.26;35.80
32456;BME280;18912;43.270;27.942;2023-03-31T00:55:43;98130.72;;;10.28;35.43
32456;BME280;18912;43.270;27.942;2023-03-31T00:58:10;98126.13;;;10.22;35.68
32456;BME280;18912;43.270;27.942;2023-03-31T01:00:41;98127.25;;;10.60;35.20
32456;BME280;18912;43.270;27.942;2023-03-31T01:03:07;98124.53;;;10.73;35.11
32456;BME280;18912;43.270;27.942;2023-03-31T01:05:46;98114.16;;;10.70;34.98
32456;BME280;18912;43.270;27.942;2023-03-31T01:08:15;98111.47;;;10.77;35.18
32456;BME280;18912;43.270;27.942;2023-03-31T01:10:45;98100.63;;;10.83;34.79
32456;BME280;18912;43.270;27.942;2023-03-31T01:13:12;98102.31;;;10.71;35.09
32456;BME280;18912;43.270;27.942;2023-03-31T01:15:40;98106.25;;;10.43;35.75
32456;BME280;18912;43.270;27.942;2023-03-31T01:18:07;98103.09;;;10.39;35.46
32456;BME280;18912;43.270;27.942;2023-03-31T01:43:42;98075.06;;;10.27;36.10
32456;BME280;18912;43.270;27.942;2023-03-31T01:46:17;98069.03;;;10.58;35.60
32456;BME280;18912;43.270;27.942;2023-03-31T01:56:45;98057.78;;;10.15;36.37
32456;BME280;18912;43.270;27.942;2023-03-31T01:59:18;98051.16;;;10.37;35.99
32456;BME280;18912;43.270;27.942;2023-03-31T02:01:58;98046.81;;;10.29;36.26
32456;BME280;18912;43.270;27.942;2023-03-31T02:04:30;98045.94;;;10.35;36.09
32456;BME280;18912;43.270;27.942;2023-03-31T02:07:03;98048.66;;;10.16;36.62
32456;BME280;18912;43.270;27.942;2023-03-31T02:09:34;98048.25;;;10.45;36.22
32456;BME280;18912;43.270;27.942;2023-03-31T02:12:05;98035.78;;;10.44;36.24
32456;BME280;18912;43.270;27.942;2023-03-31T02:14:33;98033.72;;;10.33;35.94
32456;BME280;18912;43.270;27.942;2023-03-31T02:17:01;98030.78;;;10.21;36.25
32456;BME280;18912;43.270;27.942;2023-03-31T02:19:34;98029.06;;;10.86;35.44
32456;BME280;18912;43.270;27.942;2023-03-31T02:22:04;98013.28;;;10.76;35.44
32456;BME280;18912;43.270;27.942;2023-03-31T02:24:33;98012.69;;;10.61;35.60
32456;BME280;18912;43.270;27.942;2023-03-31T02:29:44;97997.72;;;10.26;36.20
32456;BME280;18912;43.270;27.942;2023-03-31T02:32:23;97995.44;;;10.56;35.59
32456;BME280;18912;43.270;27.942;2023-03-31T02:34:54;98000.03;;;10.42;35.88
32456;BME280;18912;43.270;27.942;2023-03-31T02:37:20;97981.75;;;10.31;35.92
32456;BME280;18912;43.270;27.942;2023-03-31T02:39:47;97987.53;;;10.41;36.02
32456;BME280;18912;43.270;27.942;2023-03-31T02:42:15;97984.00;;;10.47;35.81
32456;BME280;18912;43.270;27.942;2023-03-31T02:44:40;97989.63;;;10.46;35.79
32456;BME280;18912;43.270;27.942;2023-03-31T02:47:09;97995.38;;;10.75;35.74
32456;BME280;18912;43.270;27.942;2023-03-31T02:49:38;97997.72;;;10.46;35.91
32456;BME280;18912;43.270;27.942;2023-03-31T02:55:08;97994.16;;;10.78;35.63
32456;BME280;18912;43.270;27.942;2023-03-31T03:03:45;97977.94;;;11.28;34.92
32456;BME280;18912;43.270;27.942;2023-03-31T03:06:34;97972.13;;;10.74;36.09
32456;BME280;18912;43.270;27.942;2023-03-31T03:17:12;97954.25;;;11.62;35.12
32456;BME280;18912;43.270;27.942;2023-03-31T03:19:40;97955.97;;;11.12;35.46
32456;BME280;18912;43.270;27.942;2023-03-31T03:22:06;97955.34;;;10.33;36.53
32456;BME280;18912;43.270;27.942;2023-03-31T03:24:32;97960.94;;;10.51;36.24
32456;BME280;18912;43.270;27.942;2023-03-31T03:26:59;97956.53;;;10.57;36.19
32456;BME280;18912;43.270;27.942;2023-03-31T03:29:25;97955.53;;;10.58;36.30
32456;BME280;18912;43.270;27.942;2023-03-31T03:31:51;97957.09;;;10.85;35.96
32456;BME280;18912;43.270;27.942;2023-03-31T03:34:17;97964.81;;;11.39;35.36
32456;BME280;18912;43.270;27.942;2023-03-31T03:36:44;97956.91;;;11.30;35.54
32456;BME280;18912;43.270;27.942;2023-03-31T03:39:10;97946.94;;;11.31;35.77
32456;BME280;18912;43.270;27.942;2023-03-31T03:41:37;97956.13;;;11.23;35.67
32456;BME280;18912;43.270;27.942;2023-03-31T03:44:02;97964.03;;;11.25;36.03
32456;BME280;18912;43.270;27.942;2023-03-31T03:46:28;97966.97;;;11.17;36.43
32456;BME280;18912;43.270;27.942;2023-03-31T03:48:54;97955.13;;;11.11;36.88
32456;BME280;18912;43.270;27.942;2023-03-31T03:51:20;97953.34;;;10.92;37.28
32456;BME280;18912;43.270;27.942;2023-03-31T03:53:45;97953.00;;;10.63;37.67
32456;BME280;18912;43.270;27.942;2023-03-31T03:56:11;97955.13;;;10.41;37.86
32456;BME280;18912;43.270;27.942;2023-03-31T03:58:36;97953.66;;;10.45;37.82
32456;BME280;18912;43.270;27.942;2023-03-31T04:01:02;97948.25;;;10.52;37.84
32456;BME280;18912;43.270;27.942;2023-03-31T04:03:28;97941.81;;;10.00;39.12
32456;BME280;18912;43.270;27.942;2023-03-31T04:05:55;97939.13;;;10.00;39.29
32456;BME280;18912;43.270;27.942;2023-03-31T04:08:21;97933.09;;;9.92;39.93
32456;BME280;18912;43.270;27.942;2023-03-31T04:10:48;97936.00;;;10.03;39.90
32456;BME280;18912;43.270;27.942;2023-03-31T04:13:17;97929.34;;;10.06;40.23
32456;BME280;18912;43.270;27.942;2023-03-31T04:15:44;97931.47;;;10.10;40.31
32456;BME280;18912;43.270;27.942;2023-03-31T04:18:10;97925.22;;;10.16;40.46
32456;BME280;18912;43.270;27.942;2023-03-31T04:20:50;97923.97;;;10.32;40.60
32456;BME280;18912;43.270;27.942;2023-03-31T04:23:29;97931.00;;;10.46;40.52
32456;BME280;18912;43.270;27.942;2023-03-31T04:25:54;97934.31;;;10.61;40.33
32456;BME280;18912;43.270;27.942;2023-03-31T04:28:19;97931.78;;;10.73;40.34
32456;BME280;18912;43.270;27.942;2023-03-31T04:30:45;97931.69;;;10.92;40.15
32456;BME280;18912;43.270;27.942;2023-03-31T04:33:10;97916.66;;;11.09;40.09
32456;BME280;18912;43.270;27.942;2023-03-31T04:35:39;97909.88;;;11.32;39.94
32456;BME280;18912;43.270;27.942;2023-03-31T04:38:21;97914.84;;;11.41;40.09
32456;BME280;18912;43.270;27.942;2023-03-31T04:40:49;97913.59;;;11.37;40.22
32456;BME280;18912;43.270;27.942;2023-03-31T04:43:16;97926.69;;;11.78;39.62
32456;BME280;18912;43.270;27.942;2023-03-31T04:45:42;97915.16;;;11.89;39.65
32456;BME280;18912;43.270;27.942;2023-03-31T04:48:08;97910.84;;;12.06;39.38
32456;BME280;18912;43.270;27.942;2023-03-31T04:50:34;97908.25;;;12.17;39.16
32456;BME280;18912;43.270;27.942;2023-03-31T04:53:00;97919.50;;;12.39;38.82
32456;BME280;18912;43.270;27.942;2023-03-31T04:55:26;97914.03;;;12.64;38.26
32456;BME280;18912;43.270;27.942;2023-03-31T04:57:51;97915.09;;;12.81;38.29
32456;BME280;18912;43.270;27.942;2023-03-31T05:00:18;97895.50;;;13.15;38.01
32456;BME280;18912;43.270;27.942;2023-03-31T05:02:44;97900.56;;;13.30;37.48
32456;BME280;18912;43.270;27.942;2023-03-31T05:05:09;97893.91;;;13.26;37.95
32456;BME280;18912;43.270;27.942;2023-03-31T05:07:35;97891.59;;;12.75;38.32
32456;BME280;18912;43.270;27.942;2023-03-31T05:10:01;97885.44;;;13.04;38.17
32456;BME280;18912;43.270;27.942;2023-03-31T05:12:26;97887.06;;;13.05;37.92
32456;BME280;18912;43.270;27.942;2023-03-31T05:14:51;97895.44;;;13.03;38.21
32456;BME280;18912;43.270;27.942;2023-03-31T05:17:17;97874.78;;;12.84;38.31
32456;BME280;18912;43.270;27.942;2023-03-31T05:19:43;97865.84;;;13.32;37.69
32456;BME280;18912;43.270;27.942;2023-03-31T05:22:08;97879.22;;;12.97;37.97
32456;BME280;18912;43.270;27.942;2023-03-31T05:24:34;97870.66;;;13.18;38.05
32456;BME280;18912;43.270;27.942;2023-03-31T05:26:59;97863.78;;;13.16;37.75
32456;BME280;18912;43.270;27.942;2023-03-31T05:29:25;97862.13;;;12.96;38.07
32456;BME280;18912;43.270;27.942;2023-03-31T05:31:50;97868.06;;;13.23;37.97
32456;BME280;18912;43.270;27.942;2023-03-31T05:34:18;97864.97;;;13.20;37.72
32456;BME280;18912;43.270;27.942;2023-03-31T05:36:44;97860.41;;;13.32;37.88
32456;BME280;18912;43.270;27.942;2023-03-31T05:39:12;97863.19;;;13.13;37.81
32456;BME280;18912;43.270;27.942;2023-03-31T05:41:38;97856.59;;;14.15;36.81
32456;BME280;18912;43.270;27.942;2023-03-31T05:44:03;97854.13;;;14.37;36.23
32456;BME280;18912;43.270;27.942;2023-03-31T05:46:29;97852.47;;;14.47;35.94
32456;BME280;18912;43.270;27.942;2023-03-31T05:48:54;97860.69;;;14.06;36.46
32456;BME280;18912;43.270;27.942;2023-03-31T05:51:21;97859.63;;;13.95;36.87
32456;BME280;18912;43.270;27.942;2023-03-31T05:53:46;97864.47;;;13.93;37.38
32456;BME280;18912;43.270;27.942;2023-03-31T05:56:12;97857.41;;;14.50;36.60
32456;BME280;18912;43.270;27.942;2023-03-31T05:58:38;97853.16;;;15.06;35.99
32456;BME280;18912;43.270;27.942;2023-03-31T06:01:07;97856.66;;;15.57;35.35
32456;BME280;18912;43.270;27.942;2023-03-31T06:03:35;97848.25;;;15.19;35.60
32456;BME280;18912;43.270;27.942;2023-03-31T06:06:02;97860.56;;;15.95;34.96
32456;BME280;18912;43.270;27.942;2023-03-31T06:08:29;97857.31;;;15.81;34.91
32456;BME280;18912;43.270;27.942;2023-03-31T06:10:56;97855.19;;;15.83;34.59
32456;BME280;18912;43.270;27.942;2023-03-31T06:13:22;97857.81;;;15.78;34.69
32456;BME280;18912;43.270;27.942;2023-03-31T06:15:58;97852.81;;;14.39;36.35
32456;BME280;18912;43.270;27.942;2023-03-31T06:18:26;97856.06;;;15.72;35.04
32456;BME280;18912;43.270;27.942;2023-03-31T06:20:53;97847.25;;;15.98;34.88
32456;BME280;18912;43.270;27.942;2023-03-31T06:23:20;97855.84;;;15.90;34.56
32456;BME280;18912;43.270;27.942;2023-03-31T06:25:45;97852.13;;;15.63;35.01
32456;BME280;18912;43.270;27.942;2023-03-31T06:28:11;97843.03;;;16.07;34.79
32456;BME280;18912;43.270;27.942;2023-03-31T06:30:36;97845.44;;;16.04;34.32
32456;BME280;18912;43.270;27.942;2023-03-31T06:33:02;97848.41;;;16.52;34.16
32456;BME280;18912;43.270;27.942;2023-03-31T06:35:27;97842.53;;;16.27;33.97
32456;BME280;18912;43.270;27.942;2023-03-31T06:37:53;97842.09;;;16.51;33.95
32456;BME280;18912;43.270;27.942;2023-03-31T06:40:18;97851.63;;;16.32;33.99
32456;BME280;18912;43.270;27.942;2023-03-31T06:42:44;97847.72;;;16.28;34.44
32456;BME280;18912;43.270;27.942;2023-03-31T06:45:09;97847.00;;;16.33;34.06
32456;BME280;18912;43.270;27.942;2023-03-31T06:47:35;97839.34;;;15.80;34.95
32456;BME280;18912;43.270;27.942;2023-03-31T06:50:07;97845.56;;;16.63;34.26
32456;BME280;18912;43.270;27.942;2023-03-31T06:52:33;97839.81;;;16.10;34.55
32456;BME280;18912;43.270;27.942;2023-03-31T06:54:59;97841.59;;;16.38;34.50
32456;BME280;18912;43.270;27.942;2023-03-31T06:57:25;97841.78;;;15.65;35.19
32456;BME280;18912;43.270;27.942;2023-03-31T06:59:51;97835.69;;;15.91;34.80
32456;BME280;18912;43.270;27.942;2023-03-31T07:02:16;97836.84;;;15.95;34.54
32456;BME280;18912;43.270;27.942;2023-03-31T07:04:42;97845.75;;;16.07;34.78
32456;BME280;18912;43.270;27.942;2023-03-31T07:07:07;97830.47;;;15.28;35.31
32456;BME280;18912;43.270;27.942;2023-03-31T07:09:33;97836.75;;;15.57;35.30
32456;BME280;18912;43.270;27.942;2023-03-31T07:11:58;97828.66;;;15.34;35.25
32456;BME280;18912;43.270;27.942;2023-03-31T07:14:24;97837.13;;;15.49;35.16
32456;BME280;18912;43.270;27.942;2023-03-31T07:16:50;97843.94;;;15.63;35.01
32456;BME280;18912;43.270;27.942;2023-03-31T07:19:16;97841.28;;;15.68;35.05
32456;BME280;18912;43.270;27.942;2023-03-31T07:21:41;97843.94;;;15.63;35.28
32456;BME280;18912;43.270;27.942;2023-03-31T07:24:07;97839.66;;;16.00;34.92
32456;BME280;18912;43.270;27.942;2023-03-31T07:26:32;97845.78;;;16.45;34.39
32456;BME280;18912;43.270;27.942;2023-03-31T07:28:58;97831.56;;;16.22;34.82
32456;BME280;18912;43.270;27.942;2023-03-31T07:31:23;97826.06;;;16.38;34.92
32456;BME280;18912;43.270;27.942;2023-03-31T07:33:49;97820.56;;;16.71;34.27
32456;BME280;18912;43.270;27.942;2023-03-31T07:36:15;97818.13;;;16.37;34.43
32456;BME280;18912;43.270;27.942;2023-03-31T07:38:42;97815.69;;;16.02;34.57
32456;BME280;18912;43.270;27.942;2023-03-31T07:41:10;97816.81;;;16.23;34.60
32456;BME280;18912;43.270;27.942;2023-03-31T07:43:36;97823.81;;;15.97;34.73
32456;BME280;18912;43.270;27.942;2023-03-31T07:46:02;97820.28;;;16.35;34.66
32456;BME280;18912;43.270;27.942;2023-03-31T07:48:29;97823.91;;;16.57;34.79
32456;BME280;18912;43.270;27.942;2023-03-31T07:50:54;97818.81;;;16.27;35.33
32456;BME280;18912;43.270;27.942;2023-03-31T07:53:20;97812.06;;;15.97;36.09
32456;BME280;18912;43.270;27.942;2023-03-31T07:55:46;97814.50;;;16.15;36.79
32456;BME280;18912;43.270;27.942;2023-03-31T07:58:12;97806.97;;;16.38;36.89
32456;BME280;18912;43.270;27.942;2023-03-31T08:00:37;97811.09;;;17.01;36.93
32456;BME280;18912;43.270;27.942;2023-03-31T08:03:03;97805.63;;;17.01;36.86
32456;BME280;18912;43.270;27.942;2023-03-31T08:05:28;97816.00;;;16.39;38.17
32456;BME280;18912;43.270;27.942;2023-03-31T08:07:54;97813.63;;;16.86;38.05
32456;BME280;18912;43.270;27.942;2023-03-31T08:10:22;97810.78;;;16.97;38.52
32456;BME280;18912;43.270;27.942;2023-03-31T08:12:48;97818.06;;;16.70;39.01
32456;BME280;18912;43.270;27.942;2023-03-31T08:15:14;97821.00;;;16.63;39.35
32456;BME280;18912;43.270;27.942;2023-03-31T08:17:40;97812.19;;;17.00;39.25
32456;BME280;18912;43.270;27.942;2023-03-31T08:20:06;97816.31;;;16.80;40.45
32456;BME280;18912;43.270;27.942;2023-03-31T08:22:32;97807.59;;;16.83;41.07
32456;BME280;18912;43.270;27.942;2023-03-31T08:24:58;97808.25;;;16.69;41.34
32456;BME280;18912;43.270;27.942;2023-03-31T08:27:23;97800.41;;;16.39;42.11
32456;BME280;18912;43.270;27.942;2023-03-31T08:29:50;97799.22;;;16.30;42.82
32456;BME280;18912;43.270;27.942;2023-03-31T08:32:16;97794.69;;;17.01;42.31
32456;BME280;18912;43.270;27.942;2023-03-31T08:34:41;97792.44;;;16.71;43.58
32456;BME280;18912;43.270;27.942;2023-03-31T08:37:08;97796.56;;;16.35;44.14
32456;BME280;18912;43.270;27.942;2023-03-31T08:39:34;97790.31;;;16.56;44.22
32456;BME280;18912;43.270;27.942;2023-03-31T08:42:10;97794.72;;;16.03;45.74
32456;BME280;18912;43.270;27.942;2023-03-31T08:47:17;97798.84;;;15.72;48.06
32456;BME280;18912;43.270;27.942;2023-03-31T08:49:51;97793.56;;;15.65;48.05
32456;BME280;18912;43.270;27.942;2023-03-31T08:52:39;97788.09;;;15.65;48.06
32456;BME280;18912;43.270;27.942;2023-03-31T08:55:12;97785.22;;;15.72;47.95
32456;BME280;18912;43.270;27.942;2023-03-31T09:00:19;97777.06;;;15.72;48.71
32456;BME280;18912;43.270;27.942;2023-03-31T09:02:54;97779.31;;;15.30;50.06
32456;BME280;18912;43.270;27.942;2023-03-31T09:05:45;97773.56;;;15.60;50.65
32456;BME280;18912;43.270;27.942;2023-03-31T09:11:13;97770.28;;;15.58;53.97
32456;BME280;18912;43.270;27.942;2023-03-31T09:18:59;97758.06;;;15.44;55.80
32456;BME280;18912;43.270;27.942;2023-03-31T09:21:39;97756.25;;;15.49;55.80
32456;BME280;18912;43.270;27.942;2023-03-31T09:26:43;97761.47;;;15.39;56.90
32456;BME280;18912;43.270;27.942;2023-03-31T09:29:23;97756.06;;;15.56;55.48
32456;BME280;18912;43.270;27.942;2023-03-31T09:31:55;97749.09;;;15.15;56.19
32456;BME280;18912;43.270;27.942;2023-03-31T09:34:29;97745.94;;;15.51;56.41
32456;BME280;18912;43.270;27.942;2023-03-31T09:36:56;97745.97;;;15.40;56.61
32456;BME280;18912;43.270;27.942;2023-03-31T09:39:22;97740.88;;;15.60;56.49
32456;BME280;18912;43.270;27.942;2023-03-31T09:41:50;97747.25;;;15.82;55.83
32456;BME280;18912;43.270;27.942;2023-03-31T09:44:36;97743.19;;;15.84;55.42
32456;BME280;18912;43.270;27.942;2023-03-31T09:47:04;97737.44;;;15.20;56.29
32456;BME280;18912;43.270;27.942;2023-03-31T09:49:35;97730.94;;;15.37;56.27
32456;BME280;18912;43.270;27.942;2023-03-31T09:52:03;97731.63;;;14.99;56.55
32456;BME280;18912;43.270;27.942;2023-03-31T09:54:36;97729.09;;;14.53;58.23
32456;BME280;18912;43.270;27.942;2023-03-31T09:57:13;97725.25;;;14.77;58.40
32456;BME280;18912;43.270;27.942;2023-03-31T09:59:39;97727.94;;;15.06;57.25
32456;BME280;18912;43.270;27.942;2023-03-31T10:02:33;97714.25;;;15.01;57.62
32456;BME280;18912;43.270;27.942;2023-03-31T10:05:04;97717.75;;;14.56;59.12
32456;BME280;18912;43.270;27.942;2023-03-31T10:07:31;97717.47;;;14.30;60.33
32456;BME280;18912;43.270;27.942;2023-03-31T10:09:57;97719.25;;;14.36;61.24
32456;BME280;18912;43.270;27.942;2023-03-31T10:12:27;97713.63;;;14.54;60.58
32456;BME280;18912;43.270;27.942;2023-03-31T10:15:01;97711.53;;;14.44;61.46
32456;BME280;18912;43.270;27.942;2023-03-31T10:17:27;97699.72;;;14.39;61.17
32456;BME280;18912;43.270;27.942;2023-03-31T10:19:58;97715.16;;;14.78;60.27
32456;BME280;18912;43.270;27.942;2023-03-31T10:22:29;97707.72;;;13.94;62.50
32456;BME280;18912;43.270;27.942;2023-03-31T10:25:16;97695.66;;;14.53;61.06
32456;BME280;18912;43.270;27.942;2023-03-31T10:27:44;97687.47;;;14.64;60.43
32456;BME280;18912;43.270;27.942;2023-03-31T10:30:17;97699.63;;;14.62;59.04
32456;BME280;18912;43.270;27.942;2023-03-31T10:32:45;97692.78;;;14.59;59.13
32456;BME280;18912;43.270;27.942;2023-03-31T10:37:37;97678.53;;;13.89;61.28
32456;BME280;18912;43.270;27.942;2023-03-31T10:40:13;97681.44;;;14.11;61.16
32456;BME280;18912;43.270;27.942;2023-03-31T10:42:39;97680.84;;;14.60;60.47
32456;BME280;18912;43.270;27.942;2023-03-31T10:47:53;97662.00;;;14.42;60.92
32456;BME280;18912;43.270;27.942;2023-03-31T10:50:25;97658.75;;;15.02;60.61
32456;BME280;18912;43.270;27.942;2023-03-31T10:52:51;97652.31;;;15.08;60.68
32456;BME280;18912;43.270;27.942;2023-03-31T10:55:25;97649.09;;;14.94;62.49
32456;BME280;18912;43.270;27.942;2023-03-31T11:22:37;97624.88;;;15.42;59.52
32456;BME280;18912;43.270;27.942;2023-03-31T11:30:44;97599.09;;;16.36;57.91
32456;BME280;18912;43.270;27.942;2023-03-31T11:38:51;97606.22;;;16.91;56.68
32456;BME280;18912;43.270;27.942;2023-03-31T11:43:59;97599.16;;;16.41;55.53
32456;BME280;18912;43.270;27.942;2023-03-31T11:51:58;97592.19;;;15.64;59.21
32456;BME280;18912;43.270;27.942;2023-03-31T11:54:39;97588.72;;;15.68;58.84
32456;BME280;18912;43.270;27.942;2023-03-31T11:57:13;97583.97;;;16.02;58.43
32456;BME280;18912;43.270;27.942;2023-03-31T11:59:42;97573.97;;;16.08;58.79
32456;BME280;18912;43.270;27.942;2023-03-31T12:02:18;97572.44;;;16.43;59.58
32456;BME280;18912;43.270;27.942;2023-03-31T12:04:50;97570.31;;;15.97;60.07
32456;BME280;18912;43.270;27.942;2023-03-31T12:08:27;97571.66;;;16.21;57.60
32456;BME280;18912;43.270;27.942;2023-03-31T12:10:22;97574.13;;;16.71;57.20
32456;BME280;18912;43.270;27.942;2023-03-31T12:15:40;97573.63;;;17.11;55.47
32456;BME280;18912;43.270;27.942;2023-03-31T12:18:18;97557.00;;;17.54;54.78
32456;BME280;18912;43.270;27.942;2023-03-31T12:20:51;97565.19;;;17.49;55.14
32456;BME280;18912;43.270;27.942;2023-03-31T12:23:22;97558.09;;;17.11;54.64
32456;BME280;18912;43.270;27.942;2023-03-31T12:28:22;97550.94;;;17.47;53.85
32456;BME280;18912;43.270;27.942;2023-03-31T12:30:49;97555.38;;;17.16;54.71
32456;BME280;18912;43.270;27.942;2023-03-31T12:33:27;97551.00;;;16.78;54.62
32456;BME280;18912;43.270;27.942;2023-03-31T12:36:19;97544.16;;;17.13;53.93
32456;BME280;18912;43.270;27.942;2023-03-31T12:42:36;97540.06;;;16.78;55.71
32456;BME280;18912;43.270;27.942;2023-03-31T12:48:02;97547.72;;;17.13;55.63
32456;BME280;18912;43.270;27.942;2023-03-31T12:50:33;97540.88;;;17.11;55.33
32456;BME280;18912;43.270;27.942;2023-03-31T12:55:54;97531.72;;;16.95;56.00
32456;BME280;18912;43.270;27.942;2023-03-31T13:01:19;97525.38;;;16.85;55.73
32456;BME280;18912;43.270;27.942;2023-03-31T13:08:57;97521.72;;;17.06;56.59
32456;BME280;18912;43.270;27.942;2023-03-31T13:16:32;97518.88;;;17.79;55.08
32456;BME280;18912;43.270;27.942;2023-03-31T13:18:58;97508.78;;;17.85;54.91
32456;BME280;18912;43.270;27.942;2023-03-31T13:21:24;97509.88;;;17.32;55.41
32456;BME280;18912;43.270;27.942;2023-03-31T13:23:50;97509.84;;;17.79;54.58
32456;BME280;18912;43.270;27.942;2023-03-31T13:34:31;97492.00;;;17.56;55.03
32456;BME280;18912;43.270;27.942;2023-03-31T13:50:45;97494.09;;;18.06;54.17
32456;BME280;18912;43.270;27.942;2023-03-31T14:01:14;97481.22;;;17.96;54.69
32456;BME280;18912;43.270;27.942;2023-03-31T14:03:51;97478.59;;;17.54;55.74
32456;BME280;18912;43.270;27.942;2023-03-31T14:06:36;97470.28;;;17.91;55.09
32456;BME280;18912;43.270;27.942;2023-03-31T14:09:31;97471.47;;;18.65;53.49
32456;BME280;18912;43.270;27.942;2023-03-31T14:11:58;97470.56;;;19.30;51.77
32456;BME280;18912;43.270;27.942;2023-03-31T14:14:24;97469.84;;;18.75;51.95
32456;BME280;18912;43.270;27.942;2023-03-31T14:16:57;97476.13;;;18.75;53.14
32456;BME280;18912;43.270;27.942;2023-03-31T14:36:34;97463.78;;;18.37;51.97
32456;BME280;18912;43.270;27.942;2023-03-31T14:39:05;97474.13;;;18.05;52.50
32456;BME280;18912;43.270;27.942;2023-03-31T14:41:33;97468.75;;;18.71;51.87
32456;BME280;18912;43.270;27.942;2023-03-31T14:44:05;97469.28;;;18.93;51.06
32456;BME280;18912;43.270;27.942;2023-03-31T14:46:35;97461.59;;;19.00;51.17
32456;BME280;18912;43.270;27.942;2023-03-31T14:49:24;97460.47;;;19.06;50.39
32456;BME280;18912;43.270;27.942;2023-03-31T14:51:51;97458.31;;;18.98;50.31
32456;BME280;18912;43.270;27.942;2023-03-31T14:54:19;97463.50;;;18.94;50.48
32456;BME280;18912;43.270;27.942;2023-03-31T14:56:51;97473.66;;;18.63;49.75
32456;BME280;18912;43.270;27.942;2023-03-31T14:59:29;97470.91;;;18.63;49.86
32456;BME280;18912;43.270;27.942;2023-03-31T15:01:57;97470.91;;;18.38;49.82
32456;BME280;18912;43.270;27.942;2023-03-31T15:04:26;97458.59;;;18.81;49.50
32456;BME280;18912;43.270;27.942;2023-03-31T15:06:52;97474.22;;;18.96;49.40
32456;BME280;18912;43.270;27.942;2023-03-31T15:09:36;97475.31;;;18.64;50.06
32456;BME280;18912;43.270;27.942;2023-03-31T15:12:06;97469.84;;;18.49;50.26
32456;BME280;18912;43.270;27.942;2023-03-31T15:14:34;97467.03;;;19.35;48.71
32456;BME280;18912;43.270;27.942;2023-03-31T15:17:01;97459.41;;;18.87;49.42
32456;BME280;18912;43.270;27.942;2023-03-31T15:19:33;97464.22;;;19.55;48.53
32456;BME280;18912;43.270;27.942;2023-03-31T15:22:13;97462.72;;;18.94;48.76
32456;BME280;18912;43.270;27.942;2023-03-31T15:24:40;97467.09;;;18.70;49.38
32456;BME280;18912;43.270;27.942;2023-03-31T15:27:13;97456.66;;;18.36;50.01
32456;BME280;18912;43.270;27.942;2023-03-31T15:29:48;97459.44;;;18.82;49.09
32456;BME280;18912;43.270;27.942;2023-03-31T15:34:49;97456.06;;;18.09;50.17
32456;BME280;18912;43.270;27.942;2023-03-31T15:37:14;97455.31;;;18.89;48.61
32456;BME280;18912;43.270;27.942;2023-03-31T15:39:44;97449.59;;;18.71;49.19
32456;BME280;18912;43.270;27.942;2023-03-31T15:42:10;97449.03;;;18.69;48.96
32456;BME280;18912;43.270;27.942;2023-03-31T15:44:37;97436.41;;;19.03;47.77
32456;BME280;18912;43.270;27.942;2023-03-31T15:49:52;97435.28;;;19.04;47.86
32456;BME280;18912;43.270;27.942;2023-03-31T15:52:31;97447.38;;;18.83;47.55
32456;BME280;18912;43.270;27.942;2023-03-31T15:54:59;97443.31;;;18.65;48.16
32456;BME280;18912;43.270;27.942;2023-03-31T15:57:35;97436.41;;;18.22;48.67
32456;BME280;18912;43.270;27.942;2023-03-31T16:00:02;97432.06;;;18.82;47.46
32456;BME280;18912;43.270;27.942;2023-03-31T16:02:42;97435.03;;;18.10;48.82
32456;BME280;18912;43.270;27.942;2023-03-31T16:07:55;97441.91;;;18.67;47.73
32456;BME280;18912;43.270;27.942;2023-03-31T16:10:22;97438.00;;;19.19;46.36
32456;BME280;18912;43.270;27.942;2023-03-31T16:13:00;97434.72;;;19.17;46.29
32456;BME280;18912;43.270;27.942;2023-03-31T16:15:38;97441.09;;;18.77;47.49
32456;BME280;18912;43.270;27.942;2023-03-31T16:18:17;97439.19;;;18.42;48.22
32456;BME280;18912;43.270;27.942;2023-03-31T16:20:53;97432.88;;;18.82;47.41
32456;BME280;18912;43.270;27.942;2023-03-31T16:23:25;97434.81;;;18.56;47.55